sensor_id;sensor_type;location;lat;lon;timestamp;P1;durP1;ratioP1;P2;durP2;ratioP2
23728;SDS011;12045;60.214;24.724;2024-03-02T00:01:55;6.87;;;3.37;;
23728;SDS011;12045;60.214;24.724;2024-03-02T00:04:22;6.33;;;3.97;;
23728;SDS011;12045;60.214;24.724;2024-03-02T00:06:53;9.20;;;3.67;;
23728;SDS011;12045;60.214;24.724;2024-03-02T00:09:29;6.60;;;3.65;;
23728;SDS011;12045;60.214;24.724;2024-03-02T00:11:59;6.60;;;3.78;;
23728;SDS011;12045;60.214;24.724;2024-03-02T00:14:30;8.10;;;4.03;;
23728;SDS011;12045;60.214;24.724;2024-03-02T00:16:59;9.83;;;4.37;;
23728;SDS011;12045;60.214;24.724;2024-03-02T00:19:29;9.35;;;4.70;;
23728;SDS011;12045;60.214;24.724;2024-03-02T00:21:56;9.77;;;4.40;;
23728;SDS011;12045;60.214;24.724;2024-03-02T00:24:33;7.60;;;3.97;;
23728;SDS011;12045;60.214;24.724;2024-03-02T00:27:03;10.10;;;4.33;;
23728;SDS011;12045;60.214;24.724;2024-03-02T00:29:32;8.30;;;4.17;;
23728;SDS011;12045;60.214;24.724;2024-03-02T00:32:01;10.48;;;4.60;;
23728;SDS011;12045;60.214;24.724;2024-03-02T00:34:29;7.73;;;3.93;;
23728;SDS011;12045;60.214;24.724;2024-03-02T00:36:58;8.67;;;3.87;;
23728;SDS011;12045;60.214;24.724;2024-03-02T00:39:27;9.80;;;5.07;;
23728;SDS011;12045;60.214;24.724;2024-03-02T00:41:56;7.47;;;4.18;;
23728;SDS011;12045;60.214;24.724;2024-03-02T00:44:27;9.23;;;4.30;;
23728;SDS011;12045;60.214;24.724;2024-03-02T00:47:00;13.50;;;5.97;;
23728;SDS011;12045;60.214;24.724;2024-03-02T00:49:27;9.93;;;5.38;;
23728;SDS011;12045;60.214;24.724;2024-03-02T00:51:57;9.73;;;4.40;;
23728;SDS011;12045;60.214;24.724;2024-03-02T00:54:26;9.97;;;4.67;;
23728;SDS011;12045;60.214;24.724;2024-03-02T00:56:56;11.63;;;6.07;;
23728;SDS011;12045;60.214;24.724;2024-03-02T00:59:24;10.43;;;4.23;;
23728;SDS011;12045;60.214;24.724;2024-03-02T01:01:52;16.07;;;5.93;;
23728;SDS011;12045;60.214;24.724;2024-03-02T01:04:20;12.20;;;5.80;;
23728;SDS011;12045;60.214;24.724;2024-03-02T01:06:47;14.97;;;6.43;;
23728;SDS011;12045;60.214;24.724;2024-03-02T01:09:15;11.20;;;5.70;;
23728;SDS011;12045;60.214;24.724;2024-03-02T01:11:45;13.50;;;5.70;;
23728;SDS011;12045;60.214;24.724;2024-03-02T01:14:13;13.43;;;6.47;;
23728;SDS011;12045;60.214;24.724;2024-03-02T01:16:42;12.60;;;6.03;;
23728;SDS011;12045;60.214;24.724;2024-03-02T01:19:10;14.73;;;7.03;;
23728;SDS011;12045;60.214;24.724;2024-03-02T01:21:40;13.13;;;6.23;;
23728;SDS011;12045;60.214;24.724;2024-03-02T01:24:09;13.13;;;6.07;;
23728;SDS011;12045;60.214;24.724;2024-03-02T01:26:37;15.67;;;6.77;;
23728;SDS011;12045;60.214;24.724;2024-03-02T01:29:04;16.33;;;6.67;;
23728;SDS011;12045;60.214;24.724;2024-03-02T01:31:35;9.60;;;4.93;;
23728;SDS011;12045;60.214;24.724;2024-03-02T01:34:04;14.47;;;6.40;;
23728;SDS011;12045;60.214;24.724;2024-03-02T01:36:32;16.07;;;6.73;;
23728;SDS011;12045;60.214;24.724;2024-03-02T01:39:00;15.37;;;6.67;;
23728;SDS011;12045;60.214;24.724;2024-03-02T01:41:27;14.07;;;5.97;;
23728;SDS011;12045;60.214;24.724;2024-03-02T01:43:58;10.97;;;4.63;;
23728;SDS011;12045;60.214;24.724;2024-03-02T01:46:26;10.32;;;4.75;;
23728;SDS011;12045;60.214;24.724;2024-03-02T01:48:55;9.50;;;4.53;;
23728;SDS011;12045;60.214;24.724;2024-03-02T01:51:23;11.40;;;5.23;;
23728;SDS011;12045;60.214;24.724;2024-03-02T01:53:50;10.95;;;4.63;;
23728;SDS011;12045;60.214;24.724;2024-03-02T01:56:18;12.03;;;5.53;;
23728;SDS011;12045;60.214;24.724;2024-03-02T01:58:46;13.13;;;5.97;;
23728;SDS011;12045;60.214;24.724;2024-03-02T02:01:14;11.23;;;5.33;;
23728;SDS011;12045;60.214;24.724;2024-03-02T02:03:41;11.73;;;5.57;;
23728;SDS011;12045;60.214;24.724;2024-03-02T02:06:11;8.60;;;3.53;;
23728;SDS011;12045;60.214;24.724;2024-03-02T02:08:39;14.30;;;5.43;;
23728;SDS011;12045;60.214;24.724;2024-03-02T02:11:08;9.00;;;4.87;;
23728;SDS011;12045;60.214;24.724;2024-03-02T02:13:36;10.53;;;5.10;;
23728;SDS011;12045;60.214;24.724;2024-03-02T02:16:08;8.50;;;4.70;;
23728;SDS011;12045;60.214;24.724;2024-03-02T02:18:36;8.75;;;4.38;;
23728;SDS011;12045;60.214;24.724;2024-03-02T02:21:04;9.77;;;4.63;;
23728;SDS011;12045;60.214;24.724;2024-03-02T02:23:31;7.00;;;3.80;;
23728;SDS011;12045;60.214;24.724;2024-03-02T02:25:59;9.20;;;4.23;;
23728;SDS011;12045;60.214;24.724;2024-03-02T02:28:27;8.40;;;4.60;;
23728;SDS011;12045;60.214;24.724;2024-03-02T02:30:55;8.40;;;4.60;;
23728;SDS011;12045;60.214;24.724;2024-03-02T02:33:24;7.83;;;4.33;;
23728;SDS011;12045;60.214;24.724;2024-03-02T02:35:51;11.18;;;4.60;;
23728;SDS011;12045;60.214;24.724;2024-03-02T02:38:20;9.37;;;4.67;;
23728;SDS011;12045;60.214;24.724;2024-03-02T02:40:47;8.17;;;4.50;;
23728;SDS011;12045;60.214;24.724;2024-03-02T02:43:15;10.23;;;4.23;;
23728;SDS011;12045;60.214;24.724;2024-03-02T02:45:44;7.87;;;4.43;;
23728;SDS011;12045;60.214;24.724;2024-03-02T02:48:13;9.00;;;4.43;;
23728;SDS011;12045;60.214;24.724;2024-03-02T02:50:41;13.27;;;4.67;;
23728;SDS011;12045;60.214;24.724;2024-03-02T02:53:09;12.30;;;5.43;;
23728;SDS011;12045;60.214;24.724;2024-03-02T02:55:37;8.60;;;4.60;;
23728;SDS011;12045;60.214;24.724;2024-03-02T02:58:07;9.43;;;5.07;;
23728;SDS011;12045;60.214;24.724;2024-03-02T03:00:35;7.93;;;4.50;;
23728;SDS011;12045;60.214;24.724;2024-03-02T03:03:04;8.67;;;4.70;;
23728;SDS011;12045;60.214;24.724;2024-03-02T03:05:32;9.23;;;4.43;;
23728;SDS011;12045;60.214;24.724;2024-03-02T03:08:01;11.50;;;5.13;;
23728;SDS011;12045;60.214;24.724;2024-03-02T03:10:29;11.43;;;4.77;;
23728;SDS011;12045;60.214;24.724;2024-03-02T03:12:58;10.10;;;4.57;;
23728;SDS011;12045;60.214;24.724;2024-03-02T03:15:26;8.30;;;4.63;;
23728;SDS011;12045;60.214;24.724;2024-03-02T03:17:54;11.07;;;4.43;;
23728;SDS011;12045;60.214;24.724;2024-03-02T03:20:23;11.68;;;5.00;;
23728;SDS011;12045;60.214;24.724;2024-03-02T03:22:50;11.20;;;4.28;;
23728;SDS011;12045;60.214;24.724;2024-03-02T03:25:20;10.00;;;4.47;;
23728;SDS011;12045;60.214;24.724;2024-03-02T03:27:48;9.23;;;4.77;;
23728;SDS011;12045;60.214;24.724;2024-03-02T03:30:16;8.90;;;4.33;;
23728;SDS011;12045;60.214;24.724;2024-03-02T03:32:44;8.80;;;4.17;;
23728;SDS011;12045;60.214;24.724;2024-03-02T03:35:11;10.20;;;4.47;;
23728;SDS011;12045;60.214;24.724;2024-03-02T03:37:40;11.87;;;4.70;;
23728;SDS011;12045;60.214;24.724;2024-03-02T03:40:08;7.70;;;3.70;;
23728;SDS011;12045;60.214;24.724;2024-03-02T03:42:40;8.55;;;4.72;;
23728;SDS011;12045;60.214;24.724;2024-03-02T03:45:09;8.23;;;4.38;;
23728;SDS011;12045;60.214;24.724;2024-03-02T03:47:37;9.40;;;4.70;;
23728;SDS011;12045;60.214;24.724;2024-03-02T03:50:05;8.57;;;3.63;;
23728;SDS011;12045;60.214;24.724;2024-03-02T03:52:35;8.87;;;3.80;;
23728;SDS011;12045;60.214;24.724;2024-03-02T03:55:03;9.55;;;4.22;;
23728;SDS011;12045;60.214;24.724;2024-03-02T03:57:33;7.93;;;3.70;;
23728;SDS011;12045;60.214;24.724;2024-03-02T04:00:02;9.47;;;4.57;;
23728;SDS011;12045;60.214;24.724;2024-03-02T04:02:31;10.13;;;4.33;;
23728;SDS011;12045;60.214;24.724;2024-03-02T04:04:59;10.30;;;3.77;;
23728;SDS011;12045;60.214;24.724;2024-03-02T04:07:28;10.60;;;4.63;;
23728;SDS011;12045;60.214;24.724;2024-03-02T04:09:56;8.50;;;4.67;;
23728;SDS011;12045;60.214;24.724;2024-03-02T04:12:25;8.37;;;4.03;;
23728;SDS011;12045;60.214;24.724;2024-03-02T04:14:55;11.73;;;4.03;;
23728;SDS011;12045;60.214;24.724;2024-03-02T04:17:23;10.40;;;4.22;;
23728;SDS011;12045;60.214;24.724;2024-03-02T04:19:51;13.43;;;4.13;;
23728;SDS011;12045;60.214;24.724;2024-03-02T04:22:19;6.37;;;3.50;;
23728;SDS011;12045;60.214;24.724;2024-03-02T04:24:51;10.53;;;4.27;;
23728;SDS011;12045;60.214;24.724;2024-03-02T04:27:20;11.47;;;4.47;;
23728;SDS011;12045;60.214;24.724;2024-03-02T04:29:49;10.40;;;4.37;;
23728;SDS011;12045;60.214;24.724;2024-03-02T04:32:17;9.80;;;4.38;;
23728;SDS011;12045;60.214;24.724;2024-03-02T04:34:46;9.53;;;4.10;;
23728;SDS011;12045;60.214;24.724;2024-03-02T04:37:15;11.77;;;4.65;;
23728;SDS011;12045;60.214;24.724;2024-03-02T04:39:45;10.20;;;4.70;;
23728;SDS011;12045;60.214;24.724;2024-03-02T04:42:13;15.03;;;4.30;;
23728;SDS011;12045;60.214;24.724;2024-03-02T04:44:41;9.38;;;4.40;;
23728;SDS011;12045;60.214;24.724;2024-03-02T04:47:10;9.70;;;4.23;;
23728;SDS011;12045;60.214;24.724;2024-03-02T04:49:38;8.57;;;3.80;;
23728;SDS011;12045;60.214;24.724;2024-03-02T04:52:06;9.90;;;4.27;;
23728;SDS011;12045;60.214;24.724;2024-03-02T04:54:35;9.07;;;3.80;;
23728;SDS011;12045;60.214;24.724;2024-03-02T04:57:22;11.40;;;3.90;;
23728;SDS011;12045;60.214;24.724;2024-03-02T04:59:51;11.38;;;3.92;;
23728;SDS011;12045;60.214;24.724;2024-03-02T05:02:19;9.15;;;4.20;;
23728;SDS011;12045;60.214;24.724;2024-03-02T05:04:47;15.70;;;4.50;;
23728;SDS011;12045;60.214;24.724;2024-03-02T05:07:16;12.53;;;4.37;;
23728;SDS011;12045;60.214;24.724;2024-03-02T05:09:43;9.67;;;4.60;;
23728;SDS011;12045;60.214;24.724;2024-03-02T05:12:12;10.55;;;5.20;;
23728;SDS011;12045;60.214;24.724;2024-03-02T05:14:58;11.43;;;4.60;;
23728;SDS011;12045;60.214;24.724;2024-03-02T05:17:25;7.65;;;3.60;;
23728;SDS011;12045;60.214;24.724;2024-03-02T05:19:56;8.23;;;4.13;;
23728;SDS011;12045;60.214;24.724;2024-03-02T05:22:25;10.77;;;4.38;;
23728;SDS011;12045;60.214;24.724;2024-03-02T05:24:53;13.63;;;4.10;;
23728;SDS011;12045;60.214;24.724;2024-03-02T05:27:21;9.18;;;3.85;;
23728;SDS011;12045;60.214;24.724;2024-03-02T05:29:49;14.10;;;4.60;;
23728;SDS011;12045;60.214;24.724;2024-03-02T05:32:18;9.17;;;3.80;;
23728;SDS011;12045;60.214;24.724;2024-03-02T05:34:45;9.93;;;3.78;;
23728;SDS011;12045;60.214;24.724;2024-03-02T05:37:13;18.08;;;4.47;;
23728;SDS011;12045;60.214;24.724;2024-03-02T05:39:41;7.63;;;3.33;;
23728;SDS011;12045;60.214;24.724;2024-03-02T05:42:10;10.63;;;4.32;;
23728;SDS011;12045;60.214;24.724;2024-03-02T05:44:38;9.40;;;4.13;;
23728;SDS011;12045;60.214;24.724;2024-03-02T05:47:06;8.07;;;3.87;;
23728;SDS011;12045;60.214;24.724;2024-03-02T05:49:36;13.93;;;4.77;;
23728;SDS011;12045;60.214;24.724;2024-03-02T05:52:05;10.70;;;5.00;;
23728;SDS011;12045;60.214;24.724;2024-03-02T05:54:35;10.13;;;4.80;;
23728;SDS011;12045;60.214;24.724;2024-03-02T05:57:03;11.57;;;4.53;;
23728;SDS011;12045;60.214;24.724;2024-03-02T05:59:44;12.35;;;4.63;;
23728;SDS011;12045;60.214;24.724;2024-03-02T06:02:12;13.60;;;4.53;;
23728;SDS011;12045;60.214;24.724;2024-03-02T06:04:39;12.80;;;4.67;;
23728;SDS011;12045;60.214;24.724;2024-03-02T06:07:09;11.53;;;4.20;;
23728;SDS011;12045;60.214;24.724;2024-03-02T06:09:37;9.70;;;4.07;;
23728;SDS011;12045;60.214;24.724;2024-03-02T06:12:05;9.60;;;4.80;;
23728;SDS011;12045;60.214;24.724;2024-03-02T06:14:33;10.30;;;3.95;;
23728;SDS011;12045;60.214;24.724;2024-03-02T06:17:01;9.27;;;3.40;;
23728;SDS011;12045;60.214;24.724;2024-03-02T06:19:30;7.23;;;3.73;;
23728;SDS011;12045;60.214;24.724;2024-03-02T06:21:58;13.45;;;4.47;;
23728;SDS011;12045;60.214;24.724;2024-03-02T06:24:26;9.15;;;4.22;;
23728;SDS011;12045;60.214;24.724;2024-03-02T06:26:54;7.60;;;3.63;;
23728;SDS011;12045;60.214;24.724;2024-03-02T06:29:22;7.80;;;4.15;;
23728;SDS011;12045;60.214;24.724;2024-03-02T06:31:53;12.68;;;4.47;;
23728;SDS011;12045;60.214;24.724;2024-03-02T06:34:24;9.98;;;4.07;;
23728;SDS011;12045;60.214;24.724;2024-03-02T06:36:52;9.48;;;4.00;;
23728;SDS011;12045;60.214;24.724;2024-03-02T06:39:23;13.13;;;3.95;;
23728;SDS011;12045;60.214;24.724;2024-03-02T06:41:53;11.25;;;4.28;;
23728;SDS011;12045;60.214;24.724;2024-03-02T06:44:22;7.67;;;3.27;;
23728;SDS011;12045;60.214;24.724;2024-03-02T06:46:50;9.05;;;3.88;;
23728;SDS011;12045;60.214;24.724;2024-03-02T06:49:21;9.88;;;3.58;;
23728;SDS011;12045;60.214;24.724;2024-03-02T06:51:50;8.68;;;3.33;;
23728;SDS011;12045;60.214;24.724;2024-03-02T06:54:18;10.37;;;4.07;;
23728;SDS011;12045;60.214;24.724;2024-03-02T06:56:46;9.30;;;3.73;;
23728;SDS011;12045;60.214;24.724;2024-03-02T06:59:14;6.67;;;3.87;;
23728;SDS011;12045;60.214;24.724;2024-03-02T07:01:41;8.52;;;3.55;;
23728;SDS011;12045;60.214;24.724;2024-03-02T07:04:11;6.50;;;3.45;;
23728;SDS011;12045;60.214;24.724;2024-03-02T07:06:39;8.50;;;3.63;;
23728;SDS011;12045;60.214;24.724;2024-03-02T07:09:07;11.25;;;3.58;;
23728;SDS011;12045;60.214;24.724;2024-03-02T07:11:37;7.70;;;3.78;;
23728;SDS011;12045;60.214;24.724;2024-03-02T07:14:05;12.85;;;3.63;;
23728;SDS011;12045;60.214;24.724;2024-03-02T07:16:33;6.45;;;3.33;;
23728;SDS011;12045;60.214;24.724;2024-03-02T07:19:02;12.40;;;3.75;;
23728;SDS011;12045;60.214;24.724;2024-03-02T07:21:31;4.65;;;3.03;;
23728;SDS011;12045;60.214;24.724;2024-03-02T07:24:01;5.28;;;3.13;;
23728;SDS011;12045;60.214;24.724;2024-03-02T07:26:33;5.60;;;3.15;;
23728;SDS011;12045;60.214;24.724;2024-03-02T07:29:04;5.90;;;2.65;;
23728;SDS011;12045;60.214;24.724;2024-03-02T07:31:34;6.22;;;3.40;;
23728;SDS011;12045;60.214;24.724;2024-03-02T07:34:03;4.40;;;2.85;;
23728;SDS011;12045;60.214;24.724;2024-03-02T07:36:31;6.32;;;2.88;;
23728;SDS011;12045;60.214;24.724;2024-03-02T07:39:00;6.68;;;2.95;;
23728;SDS011;12045;60.214;24.724;2024-03-02T07:41:29;7.57;;;3.22;;
23728;SDS011;12045;60.214;24.724;2024-03-02T07:43:58;5.00;;;2.87;;
23728;SDS011;12045;60.214;24.724;2024-03-02T07:46:25;4.22;;;2.80;;
23728;SDS011;12045;60.214;24.724;2024-03-02T07:48:55;4.63;;;3.05;;
23728;SDS011;12045;60.214;24.724;2024-03-02T07:51:23;4.57;;;2.58;;
23728;SDS011;12045;60.214;24.724;2024-03-02T07:53:53;4.78;;;2.50;;
23728;SDS011;12045;60.214;24.724;2024-03-02T07:56:21;5.75;;;2.42;;
23728;SDS011;12045;60.214;24.724;2024-03-02T07:58:49;4.63;;;2.25;;
23728;SDS011;12045;60.214;24.724;2024-03-02T08:01:18;3.90;;;2.13;;
23728;SDS011;12045;60.214;24.724;2024-03-02T08:03:48;4.13;;;2.50;;
23728;SDS011;12045;60.214;24.724;2024-03-02T08:06:18;3.83;;;2.30;;
23728;SDS011;12045;60.214;24.724;2024-03-02T08:08:49;7.40;;;2.50;;
23728;SDS011;12045;60.214;24.724;2024-03-02T08:11:16;3.97;;;2.28;;
23728;SDS011;12045;60.214;24.724;2024-03-02T08:13:45;4.88;;;3.03;;
23728;SDS011;12045;60.214;24.724;2024-03-02T08:16:13;4.93;;;2.63;;
23728;SDS011;12045;60.214;24.724;2024-03-02T08:18:50;3.75;;;2.30;;
23728;SDS011;12045;60.214;24.724;2024-03-02T08:21:19;2.70;;;2.13;;
23728;SDS011;12045;60.214;24.724;2024-03-02T08:23:48;4.30;;;2.15;;
23728;SDS011;12045;60.214;24.724;2024-03-02T08:26:16;4.53;;;2.80;;
23728;SDS011;12045;60.214;24.724;2024-03-02T08:28:46;5.82;;;3.13;;
23728;SDS011;12045;60.214;24.724;2024-03-02T08:31:13;3.70;;;2.70;;
23728;SDS011;12045;60.214;24.724;2024-03-02T08:33:43;4.07;;;2.78;;
23728;SDS011;12045;60.214;24.724;2024-03-02T08:36:10;3.40;;;2.30;;
23728;SDS011;12045;60.214;24.724;2024-03-02T08:38:39;6.32;;;2.60;;
23728;SDS011;12045;60.214;24.724;2024-03-02T08:41:07;5.97;;;2.88;;
23728;SDS011;12045;60.214;24.724;2024-03-02T08:43:36;4.55;;;2.53;;
23728;SDS011;12045;60.214;24.724;2024-03-02T08:46:05;3.92;;;2.55;;
23728;SDS011;12045;60.214;24.724;2024-03-02T08:48:34;8.35;;;2.30;;
23728;SDS011;12045;60.214;24.724;2024-03-02T08:51:02;4.50;;;2.38;;
23728;SDS011;12045;60.214;24.724;2024-03-02T08:53:33;3.30;;;2.33;;
23728;SDS011;12045;60.214;24.724;2024-03-02T08:56:01;4.25;;;2.67;;
23728;SDS011;12045;60.214;24.724;2024-03-02T08:58:32;7.00;;;3.10;;
23728;SDS011;12045;60.214;24.724;2024-03-02T09:00:59;6.95;;;2.65;;
23728;SDS011;12045;60.214;24.724;2024-03-02T09:03:28;5.50;;;3.05;;
23728;SDS011;12045;60.214;24.724;2024-03-02T09:05:56;4.35;;;2.78;;
23728;SDS011;12045;60.214;24.724;2024-03-02T09:08:24;4.60;;;2.58;;
23728;SDS011;12045;60.214;24.724;2024-03-02T09:10:51;8.43;;;3.05;;
23728;SDS011;12045;60.214;24.724;2024-03-02T09:13:20;7.18;;;3.35;;
23728;SDS011;12045;60.214;24.724;2024-03-02T09:15:49;6.63;;;2.65;;
23728;SDS011;12045;60.214;24.724;2024-03-02T09:18:18;7.63;;;3.65;;
23728;SDS011;12045;60.214;24.724;2024-03-02T09:20:45;8.75;;;4.18;;
23728;SDS011;12045;60.214;24.724;2024-03-02T09:23:13;10.73;;;4.17;;
23728;SDS011;12045;60.214;24.724;2024-03-02T09:25:42;7.35;;;3.55;;
23728;SDS011;12045;60.214;24.724;2024-03-02T09:28:11;6.60;;;3.90;;
23728;SDS011;12045;60.214;24.724;2024-03-02T09:30:40;6.47;;;3.17;;
23728;SDS011;12045;60.214;24.724;2024-03-02T09:33:08;7.97;;;3.75;;
23728;SDS011;12045;60.214;24.724;2024-03-02T09:35:38;10.30;;;4.97;;
23728;SDS011;12045;60.214;24.724;2024-03-02T09:38:08;6.93;;;3.40;;
23728;SDS011;12045;60.214;24.724;2024-03-02T09:40:36;10.30;;;4.27;;
23728;SDS011;12045;60.214;24.724;2024-03-02T09:43:04;9.65;;;4.50;;
23728;SDS011;12045;60.214;24.724;2024-03-02T09:45:32;8.00;;;4.43;;
23728;SDS011;12045;60.214;24.724;2024-03-02T09:48:01;10.00;;;4.77;;
23728;SDS011;12045;60.214;24.724;2024-03-02T09:50:30;11.23;;;4.03;;
23728;SDS011;12045;60.214;24.724;2024-03-02T09:52:58;15.80;;;5.30;;
23728;SDS011;12045;60.214;24.724;2024-03-02T09:55:27;8.07;;;4.80;;
23728;SDS011;12045;60.214;24.724;2024-03-02T09:57:55;14.17;;;5.13;;
23728;SDS011;12045;60.214;24.724;2024-03-02T10:00:23;18.63;;;5.57;;
23728;SDS011;12045;60.214;24.724;2024-03-02T10:02:53;15.43;;;5.20;;
23728;SDS011;12045;60.214;24.724;2024-03-02T10:05:25;13.43;;;4.87;;
23728;SDS011;12045;60.214;24.724;2024-03-02T10:08:00;9.30;;;4.47;;
23728;SDS011;12045;60.214;24.724;2024-03-02T10:13:11;18.57;;;4.60;;
23728;SDS011;12045;60.214;24.724;2024-03-02T10:15:40;10.17;;;4.60;;
23728;SDS011;12045;60.214;24.724;2024-03-02T10:18:10;8.67;;;5.00;;
23728;SDS011;12045;60.214;24.724;2024-03-02T10:20:43;13.93;;;5.70;;
23728;SDS011;12045;60.214;24.724;2024-03-02T10:23:19;11.17;;;5.07;;
23728;SDS011;12045;60.214;24.724;2024-03-02T10:25:47;13.07;;;4.47;;
23728;SDS011;12045;60.214;24.724;2024-03-02T10:28:24;11.10;;;5.20;;
23728;SDS011;12045;60.214;24.724;2024-03-02T10:30:51;15.80;;;4.70;;
23728;SDS011;12045;60.214;24.724;2024-03-02T10:33:20;14.73;;;5.23;;
23728;SDS011;12045;60.214;24.724;2024-03-02T10:35:48;17.23;;;5.28;;
23728;SDS011;12045;60.214;24.724;2024-03-02T10:38:17;12.68;;;4.80;;
23728;SDS011;12045;60.214;24.724;2024-03-02T10:40:48;19.50;;;5.67;;
23728;SDS011;12045;60.214;24.724;2024-03-02T10:43:16;14.33;;;4.70;;
23728;SDS011;12045;60.214;24.724;2024-03-02T10:45:47;16.20;;;5.13;;
23728;SDS011;12045;60.214;24.724;2024-03-02T10:48:18;16.27;;;5.50;;
23728;SDS011;12045;60.214;24.724;2024-03-02T10:50:51;12.50;;;5.13;;
23728;SDS011;12045;60.214;24.724;2024-03-02T10:53:20;20.07;;;4.90;;
23728;SDS011;12045;60.214;24.724;2024-03-02T10:55:48;10.00;;;3.15;;
23728;SDS011;12045;60.214;24.724;2024-03-02T10:58:20;13.03;;;4.13;;
23728;SDS011;12045;60.214;24.724;2024-03-02T11:00:49;13.47;;;4.33;;
23728;SDS011;12045;60.214;24.724;2024-03-02T11:03:17;11.30;;;3.77;;
23728;SDS011;12045;60.214;24.724;2024-03-02T11:05:45;12.07;;;3.73;;
23728;SDS011;12045;60.214;24.724;2024-03-02T11:08:17;13.10;;;4.37;;
23728;SDS011;12045;60.214;24.724;2024-03-02T11:10:58;14.30;;;4.23;;
23728;SDS011;12045;60.214;24.724;2024-03-02T11:13:35;8.13;;;3.87;;
23728;SDS011;12045;60.214;24.724;2024-03-02T11:16:12;8.53;;;3.87;;
23728;SDS011;12045;60.214;24.724;2024-03-02T11:18:51;10.10;;;5.13;;
23728;SDS011;12045;60.214;24.724;2024-03-02T11:21:20;13.20;;;4.40;;
23728;SDS011;12045;60.214;24.724;2024-03-02T11:23:50;12.63;;;4.10;;
23728;SDS011;12045;60.214;24.724;2024-03-02T11:26:19;12.17;;;4.33;;
23728;SDS011;12045;60.214;24.724;2024-03-02T11:28:47;14.57;;;4.60;;
23728;SDS011;12045;60.214;24.724;2024-03-02T11:31:16;7.37;;;4.13;;
23728;SDS011;12045;60.214;24.724;2024-03-02T11:33:46;6.13;;;3.40;;
23728;SDS011;12045;60.214;24.724;2024-03-02T11:36:15;15.40;;;4.53;;
23728;SDS011;12045;60.214;24.724;2024-03-02T11:38:43;14.27;;;4.37;;
23728;SDS011;12045;60.214;24.724;2024-03-02T11:41:13;23.53;;;5.33;;
23728;SDS011;12045;60.214;24.724;2024-03-02T11:43:42;17.63;;;4.90;;
23728;SDS011;12045;60.214;24.724;2024-03-02T11:46:11;15.17;;;5.20;;
23728;SDS011;12045;60.214;24.724;2024-03-02T11:48:40;11.13;;;4.73;;
23728;SDS011;12045;60.214;24.724;2024-03-02T11:51:07;14.05;;;5.68;;
23728;SDS011;12045;60.214;24.724;2024-03-02T11:53:36;11.37;;;5.07;;
23728;SDS011;12045;60.214;24.724;2024-03-02T11:56:06;18.00;;;4.57;;
23728;SDS011;12045;60.214;24.724;2024-03-02T11:58:39;10.67;;;6.03;;
23728;SDS011;12045;60.214;24.724;2024-03-02T12:01:09;20.67;;;5.33;;
23728;SDS011;12045;60.214;24.724;2024-03-02T12:03:38;8.43;;;4.25;;
23728;SDS011;12045;60.214;24.724;2024-03-02T12:06:07;12.57;;;5.28;;
23728;SDS011;12045;60.214;24.724;2024-03-02T12:08:36;13.77;;;5.50;;
23728;SDS011;12045;60.214;24.724;2024-03-02T12:11:07;12.87;;;6.07;;
23728;SDS011;12045;60.214;24.724;2024-03-02T12:13:35;9.30;;;4.40;;
23728;SDS011;12045;60.214;24.724;2024-03-02T12:16:03;14.70;;;6.70;;
23728;SDS011;12045;60.214;24.724;2024-03-02T12:18:32;11.40;;;5.83;;
23728;SDS011;12045;60.214;24.724;2024-03-02T12:20:59;12.53;;;5.87;;
23728;SDS011;12045;60.214;24.724;2024-03-02T12:23:30;11.10;;;6.10;;
23728;SDS011;12045;60.214;24.724;2024-03-02T12:25:57;9.93;;;5.50;;
23728;SDS011;12045;60.214;24.724;2024-03-02T12:28:26;9.77;;;5.18;;
23728;SDS011;12045;60.214;24.724;2024-03-02T12:30:58;8.17;;;4.30;;
23728;SDS011;12045;60.214;24.724;2024-03-02T12:33:26;7.68;;;4.05;;
23728;SDS011;12045;60.214;24.724;2024-03-02T12:35:56;10.20;;;4.75;;
23728;SDS011;12045;60.214;24.724;2024-03-02T12:38:26;8.80;;;4.50;;
23728;SDS011;12045;60.214;24.724;2024-03-02T12:40:56;7.57;;;3.50;;
23728;SDS011;12045;60.214;24.724;2024-03-02T12:43:29;10.80;;;4.45;;
23728;SDS011;12045;60.214;24.724;2024-03-02T12:45:58;9.35;;;4.50;;
23728;SDS011;12045;60.214;24.724;2024-03-02T12:48:26;8.00;;;3.20;;
23728;SDS011;12045;60.214;24.724;2024-03-02T12:51:00;7.88;;;4.15;;
23728;SDS011;12045;60.214;24.724;2024-03-02T12:53:30;6.90;;;4.40;;
23728;SDS011;12045;60.214;24.724;2024-03-02T12:55:59;5.73;;;3.90;;
23728;SDS011;12045;60.214;24.724;2024-03-02T12:58:26;8.00;;;3.47;;
23728;SDS011;12045;60.214;24.724;2024-03-02T13:01:09;7.80;;;4.07;;
23728;SDS011;12045;60.214;24.724;2024-03-02T13:03:38;6.60;;;3.43;;
23728;SDS011;12045;60.214;24.724;2024-03-02T13:06:06;7.57;;;4.13;;
23728;SDS011;12045;60.214;24.724;2024-03-02T13:08:36;7.60;;;4.20;;
23728;SDS011;12045;60.214;24.724;2024-03-02T13:11:09;8.07;;;3.63;;
23728;SDS011;12045;60.214;24.724;2024-03-02T13:13:39;7.20;;;3.83;;
23728;SDS011;12045;60.214;24.724;2024-03-02T13:16:10;6.25;;;2.85;;
23728;SDS011;12045;60.214;24.724;2024-03-02T13:18:40;7.57;;;4.37;;
23728;SDS011;12045;60.214;24.724;2024-03-02T13:21:10;8.13;;;4.10;;
23728;SDS011;12045;60.214;24.724;2024-03-02T13:23:40;6.78;;;3.80;;
23728;SDS011;12045;60.214;24.724;2024-03-02T13:26:09;5.60;;;4.07;;
23728;SDS011;12045;60.214;24.724;2024-03-02T13:28:40;5.05;;;2.90;;
23728;SDS011;12045;60.214;24.724;2024-03-02T13:31:10;6.73;;;3.67;;
23728;SDS011;12045;60.214;24.724;2024-03-02T13:33:42;9.18;;;3.45;;
23728;SDS011;12045;60.214;24.724;2024-03-02T13:36:10;7.05;;;3.08;;
23728;SDS011;12045;60.214;24.724;2024-03-02T13:38:39;7.95;;;4.07;;
23728;SDS011;12045;60.214;24.724;2024-03-02T13:41:07;6.43;;;3.33;;
23728;SDS011;12045;60.214;24.724;2024-03-02T13:43:36;8.73;;;3.70;;
23728;SDS011;12045;60.214;24.724;2024-03-02T13:46:07;4.93;;;2.80;;
23728;SDS011;12045;60.214;24.724;2024-03-02T13:48:36;5.60;;;3.30;;
23728;SDS011;12045;60.214;24.724;2024-03-02T13:51:04;6.77;;;3.80;;
23728;SDS011;12045;60.214;24.724;2024-03-02T13:53:32;6.50;;;3.75;;
23728;SDS011;12045;60.214;24.724;2024-03-02T13:56:02;5.63;;;3.28;;
23728;SDS011;12045;60.214;24.724;2024-03-02T13:58:31;7.15;;;4.00;;
23728;SDS011;12045;60.214;24.724;2024-03-02T14:00:59;7.43;;;4.03;;
23728;SDS011;12045;60.214;24.724;2024-03-02T14:03:29;7.78;;;4.50;;
23728;SDS011;12045;60.214;24.724;2024-03-02T14:05:57;7.03;;;4.25;;
23728;SDS011;12045;60.214;24.724;2024-03-02T14:08:28;7.40;;;4.23;;
23728;SDS011;12045;60.214;24.724;2024-03-02T14:10:58;7.27;;;4.20;;
23728;SDS011;12045;60.214;24.724;2024-03-02T14:13:27;7.25;;;3.88;;
23728;SDS011;12045;60.214;24.724;2024-03-02T14:15:56;8.30;;;4.50;;
23728;SDS011;12045;60.214;24.724;2024-03-02T14:18:26;6.68;;;3.22;;
23728;SDS011;12045;60.214;24.724;2024-03-02T14:20:54;6.97;;;3.93;;
23728;SDS011;12045;60.214;24.724;2024-03-02T14:23:23;7.93;;;3.38;;
23728;SDS011;12045;60.214;24.724;2024-03-02T14:25:53;9.85;;;4.65;;
23728;SDS011;12045;60.214;24.724;2024-03-02T14:28:21;9.10;;;3.80;;
23728;SDS011;12045;60.214;24.724;2024-03-02T14:31:10;5.63;;;3.45;;
23728;SDS011;12045;60.214;24.724;2024-03-02T14:33:37;8.55;;;4.07;;
23728;SDS011;12045;60.214;24.724;2024-03-02T14:36:06;9.93;;;4.63;;
23728;SDS011;12045;60.214;24.724;2024-03-02T14:38:37;8.60;;;4.30;;
23728;SDS011;12045;60.214;24.724;2024-03-02T14:41:05;6.80;;;3.80;;
23728;SDS011;12045;60.214;24.724;2024-03-02T14:43:34;7.87;;;4.73;;